createdAt,value
2023-06-01T00:00:06.344Z,99.90
2023-06-01T00:02:41.677Z,99.90
2023-06-01T00:05:38.234Z,99.90
2023-06-01T00:08:23.747Z,99.90
2023-06-01T00:14:48.533Z,99.90
2023-06-01T00:17:17.259Z,99.90
2023-06-01T00:19:46.363Z,99.90
2023-06-01T00:22:14.422Z,99.90
2023-06-01T00:24:42.604Z,99.90
2023-06-01T00:27:11.137Z,99.90
2023-06-01T00:34:19.797Z,99.90
2023-06-01T00:37:40.242Z,99.90
2023-06-01T00:41:22.849Z,99.90
2023-06-01T00:52:44.437Z,99.90
2023-06-01T01:12:43.343Z,99.90
2023-06-01T01:16:22.510Z,99.90
2023-06-01T01:19:14.189Z,99.90
2023-06-01T01:21:48.655Z,99.90
2023-06-01T01:28:34.007Z,99.90
2023-06-01T01:33:46.057Z,99.90
2023-06-01T01:34:22.100Z,99.90
2023-06-01T01:37:14.081Z,99.90
2023-06-01T01:40:58.403Z,99.90
2023-06-01T01:44:09.097Z,99.90
2023-06-01T01:47:43.682Z,99.90
2023-06-01T02:19:07.502Z,99.90
2023-06-01T02:21:36.031Z,99.90
2023-06-01T02:24:06.900Z,99.90
2023-06-01T02:26:35.556Z,99.90
2023-06-01T02:29:06.452Z,99.90
2023-06-01T02:31:40.468Z,99.90
2023-06-01T02:39:02.432Z,99.90
2023-06-01T02:54:15.575Z,99.90
2023-06-01T03:01:13.017Z,99.90
2023-06-01T03:20:45.745Z,99.90
2023-06-01T03:26:27.010Z,99.90
2023-06-01T03:29:05.744Z,99.90
2023-06-01T03:31:56.764Z,99.90
2023-06-01T03:34:59.426Z,99.90
2023-06-01T03:37:48.331Z,99.90
2023-06-01T04:19:04.496Z,99.90
2023-06-01T04:32:54.012Z,99.90
2023-06-01T04:35:46.122Z,99.90
2023-06-01T04:38:17.902Z,99.90
2023-06-01T04:40:47.185Z,99.90
2023-06-01T04:43:20.262Z,99.90
2023-06-01T04:45:49.405Z,99.90
2023-06-01T04:48:17.940Z,99.90
2023-06-01T04:51:22.802Z,99.90
2023-06-01T04:53:53.293Z,99.90
2023-06-01T04:56:27.872Z,99.90
2023-06-01T04:58:56.856Z,99.90
2023-06-01T05:01:31.003Z,99.90
2023-06-01T05:03:59.864Z,99.90
2023-06-01T05:07:41.777Z,99.90
2023-06-01T05:15:19.709Z,99.90
2023-06-01T05:18:16.264Z,99.90
2023-06-01T05:20:50.400Z,99.90
2023-06-01T05:23:21.424Z,99.90
2023-06-01T05:25:49.172Z,99.90
2023-06-01T05:28:17.179Z,99.90
2023-06-01T05:30:44.876Z,99.90
2023-06-01T05:33:12.940Z,99.90
2023-06-01T05:36:07.793Z,99.90
2023-06-01T05:38:49.231Z,99.90
2023-06-01T05:41:16.937Z,99.90
2023-06-01T05:43:44.771Z,99.90
2023-06-01T05:46:20.336Z,99.90
2023-06-01T05:49:17.384Z,99.90
2023-06-01T05:51:47.285Z,99.90
2023-06-01T05:54:15.232Z,97.90
2023-06-01T05:56:43.316Z,97.40
2023-06-01T05:59:12.438Z,96.50
2023-06-01T06:01:40.307Z,96.60
2023-06-01T06:04:11.382Z,95.70
2023-06-01T06:10:14.393Z,94.60
2023-06-01T06:20:57.942Z,90.80
2023-06-01T06:23:44.150Z,88.30
2023-06-01T06:26:17.099Z,87.00
2023-06-01T06:29:17.693Z,86.80
2023-06-01T06:36:27.249Z,83.80
2023-06-01T06:38:57.976Z,83.40
2023-06-01T07:16:37.221Z,70.30
2023-06-01T07:20:11.327Z,69.00
2023-06-01T07:23:22.407Z,67.40
2023-06-01T07:27:04.834Z,68.20
2023-06-01T07:33:48.634Z,65.20
2023-06-01T08:08:49.661Z,60.40
2023-06-01T08:12:44.947Z,60.00
2023-06-01T08:20:22.194Z,58.50
2023-06-01T08:22:53.840Z,58.90
2023-06-01T08:25:43.543Z,58.10
2023-06-01T08:28:11.147Z,57.80
2023-06-01T08:31:34.408Z,57.40
2023-06-01T08:34:14.705Z,56.60
2023-06-01T08:36:44.848Z,57.50
2023-06-01T08:39:23.395Z,57.50
2023-06-01T08:45:55.526Z,59.30
2023-06-01T08:48:25.704Z,58.50
2023-06-01T08:50:54.731Z,58.00
2023-06-01T08:53:25.904Z,57.20
2023-06-01T08:55:54.333Z,57.80
2023-06-01T08:58:22.038Z,58.80
2023-06-01T09:00:54.963Z,58.00
2023-06-01T09:03:22.763Z,57.90
2023-06-01T09:05:50.299Z,59.60
2023-06-01T09:08:18.580Z,60.90
2023-06-01T09:10:56.757Z,63.50
2023-06-01T09:13:35.733Z,62.50
2023-06-01T09:17:11.842Z,60.60
2023-06-01T09:20:26.110Z,59.90
2023-06-01T09:22:57.057Z,59.30
2023-06-01T09:25:30.474Z,59.90
2023-06-01T09:28:30.968Z,61.50
2023-06-01T09:31:57.893Z,61.90
2023-06-01T09:34:53.491Z,63.20
2023-06-01T09:37:24.604Z,62.80
2023-06-01T09:39:58.651Z,60.70
2023-06-01T09:42:36.581Z,60.90
2023-06-01T09:45:23.117Z,59.70
2023-06-01T09:47:52.092Z,58.80
2023-06-01T09:50:43.816Z,58.40
2023-06-01T09:53:20.802Z,58.50
2023-06-01T09:56:02.364Z,58.20
2023-06-01T09:58:35.442Z,57.70
2023-06-01T10:04:10.199Z,58.40
2023-06-01T10:07:09.257Z,60.00
2023-06-01T10:10:08.368Z,59.30
2023-06-01T10:12:41.129Z,60.90
2023-06-01T10:15:25.585Z,61.70
2023-06-01T10:18:08.609Z,61.10
2023-06-01T10:20:47.764Z,59.70
2023-06-01T10:23:30.227Z,60.80
2023-06-01T10:26:06.802Z,61.00
2023-06-01T10:29:24.091Z,60.50
2023-06-01T10:31:59.312Z,60.60
2023-06-01T10:34:49.359Z,60.00
2023-06-01T10:37:35.748Z,60.00
2023-06-01T10:40:19.829Z,60.30
2023-06-01T10:42:50.774Z,60.00
2023-06-01T10:45:38.931Z,60.30
2023-06-01T10:48:12.012Z,59.80
2023-06-01T10:50:41.660Z,59.50
2023-06-01T10:53:32.266Z,59.50
2023-06-01T10:56:29.577Z,60.20
2023-06-01T10:59:18.137Z,61.60
2023-06-01T11:01:50.873Z,64.00
2023-06-01T11:04:37.808Z,66.10
2023-06-01T11:07:39.946Z,66.20
2023-06-01T11:10:38.744Z,68.60
2023-06-01T11:17:52.764Z,69.70
2023-06-01T11:20:48.671Z,74.00
2023-06-01T11:23:29.014Z,74.20
2023-06-01T11:35:39.381Z,75.40
2023-06-01T11:38:40.614Z,75.30
2023-06-01T11:41:34.799Z,76.10
2023-06-01T11:44:03.301Z,74.50
2023-06-01T11:46:31.617Z,75.00
2023-06-01T11:49:02.527Z,74.10
2023-06-01T11:51:32.252Z,74.50
2023-06-01T11:54:02.460Z,75.50
2023-06-01T11:56:43.628Z,77.30
2023-06-01T11:59:12.311Z,76.90
2023-06-01T12:01:47.635Z,75.60
2023-06-01T12:04:16.503Z,75.40
2023-06-01T12:06:44.170Z,75.90
2023-06-01T12:09:12.659Z,77.30
2023-06-01T12:11:42.089Z,76.40
2023-06-01T12:14:11.718Z,77.30
2023-06-01T12:17:06.351Z,75.80
2023-06-01T12:19:47.157Z,77.80
2023-06-01T12:22:16.982Z,76.60
2023-06-01T12:24:45.647Z,75.60
2023-06-01T12:27:44.132Z,77.30
2023-06-01T12:30:22.119Z,76.10
2023-06-01T12:32:49.581Z,75.40
2023-06-01T12:35:18.954Z,75.00
2023-06-01T12:37:50.315Z,76.70
2023-06-01T12:40:29.812Z,75.80
2023-06-01T12:42:57.322Z,75.60
2023-06-01T12:45:24.823Z,74.80
2023-06-01T12:47:52.325Z,74.60
2023-06-01T12:50:19.886Z,74.30
2023-06-01T12:52:48.161Z,76.10
2023-06-01T12:55:16.385Z,77.70
2023-06-01T12:57:44.600Z,76.90
2023-06-01T13:00:12.748Z,77.10
2023-06-01T13:02:40.552Z,76.70
2023-06-01T13:05:09.769Z,75.30
2023-06-01T13:07:37.287Z,76.60
2023-06-01T13:10:05.691Z,77.60
2023-06-01T13:12:33.396Z,76.00
2023-06-01T13:15:01.905Z,76.50
2023-06-01T13:17:29.794Z,77.10
2023-06-01T13:19:57.739Z,78.60
2023-06-01T13:23:18.573Z,77.00
2023-06-01T13:26:06.615Z,76.70
2023-06-01T13:28:39.270Z,76.00
2023-06-01T13:31:10.538Z,77.40
2023-06-01T13:33:47.286Z,76.10
2023-06-01T13:36:27.821Z,77.90
2023-06-01T13:39:07.776Z,76.60
2023-06-01T13:41:44.460Z,75.80
2023-06-01T13:44:13.809Z,76.00
2023-06-01T13:46:41.523Z,75.30
2023-06-01T13:49:13.812Z,75.70
2023-06-01T13:51:41.924Z,75.00
2023-06-01T13:54:09.725Z,77.30
2023-06-01T13:56:47.177Z,76.20
2023-06-01T13:59:23.565Z,75.40
2023-06-01T14:01:56.618Z,75.90
2023-06-01T14:04:35.039Z,77.10
2023-06-01T14:07:03.033Z,76.40
2023-06-01T14:09:35.877Z,77.00
2023-06-01T14:12:03.612Z,77.10
2023-06-01T14:14:31.237Z,76.90
2023-06-01T14:17:01.826Z,75.10
2023-06-01T14:19:29.775Z,75.80
2023-06-01T14:21:57.478Z,74.40
2023-06-01T14:24:25.231Z,74.40
2023-06-01T14:29:47.090Z,73.50
2023-06-01T14:32:26.411Z,74.00
2023-06-01T14:34:54.116Z,74.10
2023-06-01T14:37:29.638Z,75.10
2023-06-01T14:40:06.297Z,75.00
2023-06-01T14:42:50.323Z,75.60
2023-06-01T14:45:22.877Z,76.70
2023-06-01T14:48:01.347Z,75.10
2023-06-01T14:50:39.352Z,76.30
2023-06-01T14:53:07.826Z,77.30
2023-06-01T14:58:43.858Z,74.90
2023-06-01T15:01:13.133Z,76.60
2023-06-01T15:03:49.939Z,76.20
2023-06-01T15:06:24.082Z,77.20
2023-06-01T15:09:00.358Z,75.20
2023-06-01T15:11:28.628Z,75.60
2023-06-01T15:13:56.432Z,74.60
2023-06-01T15:16:24.540Z,74.90
2023-06-01T15:18:54.788Z,74.10
2023-06-01T15:21:25.437Z,75.60
2023-06-01T15:24:00.063Z,75.20
2023-06-01T15:26:30.750Z,75.20
2023-06-01T15:28:58.796Z,76.00
2023-06-01T15:31:26.544Z,76.50
2023-06-01T15:33:58.039Z,77.10
2023-06-01T15:36:25.944Z,76.70
2023-06-01T15:38:53.548Z,77.00
2023-06-01T15:41:24.224Z,77.30
2023-06-01T15:44:02.404Z,77.00
2023-06-01T15:46:41.512Z,79.60
2023-06-01T15:49:10.500Z,76.70
2023-06-01T15:51:41.408Z,76.70
2023-06-01T15:54:38.224Z,76.00
2023-06-01T15:58:06.002Z,78.30
2023-06-01T16:09:56.616Z,75.50
2023-06-01T16:12:45.690Z,76.10
2023-06-01T16:19:23.021Z,76.80
2023-06-01T16:22:34.658Z,80.90
2023-06-01T16:25:52.727Z,81.80
2023-06-01T16:28:34.319Z,82.00
2023-06-01T16:41:09.021Z,81.90
2023-06-01T16:44:07.308Z,81.40
2023-06-01T16:46:55.021Z,81.40
2023-06-01T16:50:00.217Z,80.90
2023-06-01T16:53:22.310Z,80.70
2023-06-01T16:56:00.528Z,80.20
2023-06-01T16:59:22.487Z,80.70
2023-06-01T17:09:08.808Z,79.90
2023-06-01T17:11:58.256Z,80.70
2023-06-01T17:14:47.025Z,80.00
2023-06-01T17:17:37.930Z,79.20
2023-06-01T17:20:17.492Z,78.80
2023-06-01T17:23:17.712Z,79.50
2023-06-01T17:26:23.358Z,82.80
2023-06-01T17:29:23.956Z,84.40
2023-06-01T17:42:33.611Z,88.90
2023-06-01T17:45:10.667Z,89.30
2023-06-01T17:47:38.648Z,89.00
2023-06-01T17:50:07.051Z,89.60
2023-06-01T17:53:03.084Z,90.00
2023-06-01T17:55:34.834Z,90.20
2023-06-01T18:04:43.472Z,90.60
2023-06-01T18:07:49.337Z,91.10
2023-06-01T18:10:27.857Z,91.10
2023-06-01T18:12:55.904Z,91.30
2023-06-01T18:15:24.199Z,91.30
2023-06-01T18:17:55.446Z,91.40
2023-06-01T18:20:33.891Z,91.40
2023-06-01T18:23:07.594Z,91.50
2023-06-01T18:26:09.768Z,91.60
2023-06-01T18:28:51.250Z,91.90
2023-06-01T18:32:26.241Z,91.90
2023-06-01T18:35:26.564Z,91.30
2023-06-01T18:38:31.947Z,91.30
2023-06-01T18:41:23.444Z,91.40
2023-06-01T18:44:03.642Z,91.80
2023-06-01T18:50:02.865Z,91.90
2023-06-01T18:59:34.645Z,92.50
2023-06-01T19:00:49.231Z,92.30
2023-06-01T19:14:45.826Z,93.60
2023-06-01T19:17:41.294Z,93.90
2023-06-01T19:59:18.141Z,98.70
2023-06-01T20:02:07.752Z,99.70
2023-06-01T20:05:01.440Z,99.90
2023-06-01T20:08:03.136Z,99.90
2023-06-01T20:22:41.307Z,99.90
2023-06-01T20:26:01.816Z,99.90
2023-06-01T20:29:13.263Z,99.90
2023-06-01T20:32:11.602Z,99.90
2023-06-01T20:56:24.927Z,99.90
2023-06-01T20:58:54.536Z,99.90
2023-06-01T21:01:26.483Z,99.90
2023-06-01T21:03:56.201Z,99.90
2023-06-01T21:06:24.876Z,99.90
2023-06-01T21:09:04.762Z,99.90
2023-06-01T21:14:40.802Z,99.90
2023-06-01T21:18:20.697Z,99.90
2023-06-01T21:28:37.326Z,99.90
2023-06-01T21:34:21.410Z,99.90
2023-06-01T21:37:19.375Z,99.90
2023-06-01T21:49:11.610Z,99.90
2023-06-01T21:59:36.946Z,99.90
2023-06-01T22:15:36.800Z,99.90
2023-06-01T22:19:38.598Z,99.90
2023-06-01T22:22:44.120Z,99.90
2023-06-01T22:25:32.743Z,99.90
2023-06-01T22:28:09.230Z,99.90
2023-06-01T22:30:40.412Z,99.90
2023-06-01T22:33:12.051Z,99.90
2023-06-01T22:35:40.214Z,99.90
2023-06-01T22:38:08.224Z,99.90
2023-06-01T22:44:42.719Z,99.90
2023-06-01T22:50:42.067Z,99.90
2023-06-01T22:53:46.923Z,99.90
2023-06-01T22:57:14.574Z,99.90
2023-06-01T23:04:35.588Z,99.90
2023-06-01T23:07:49.185Z,99.90
2023-06-01T23:11:54.104Z,99.90
2023-06-01T23:36:35.318Z,99.90
2023-06-01T23:39:08.695Z,99.90
2023-06-01T23:45:50.563Z,99.90
2023-06-01T23:48:51.622Z,99.90
2023-06-01T23:57:34.559Z,99.90
